createdAt,value
2019-03-19T14:39:04.897Z,0.00
2019-03-19T14:40:04.542Z,0.00
2019-03-19T14:41:04.531Z,0.00
2019-03-19T14:42:04.558Z,0.00
2019-03-19T14:43:04.526Z,0.00
2019-03-19T14:44:04.539Z,0.00
2019-03-19T14:45:04.502Z,0.00
2019-03-19T14:46:04.501Z,0.00
2019-03-19T15:25:56.215Z,275.62
2019-03-19T15:26:56.113Z,185.62
2019-03-19T15:27:56.167Z,213.75
2019-03-19T15:28:56.122Z,410.62
2019-03-19T15:29:56.075Z,433.12
2019-03-19T15:30:56.090Z,309.38
2019-03-19T15:31:56.054Z,241.88
2019-03-19T15:32:56.146Z,225.00
2019-03-19T15:33:56.098Z,320.62
2019-03-19T15:34:56.033Z,545.62
2019-03-19T15:35:56.018Z,444.38
2019-03-19T15:36:55.996Z,399.38
2019-03-19T15:37:56.272Z,360.00
2019-03-19T15:38:55.985Z,270.00
2019-03-19T15:39:55.981Z,213.75
2019-03-19T15:40:55.978Z,196.88
2019-03-19T15:41:55.956Z,213.75
2019-03-19T15:42:55.971Z,219.38
2019-03-19T15:43:55.930Z,225.00
2019-03-19T15:44:56.034Z,219.38
2019-03-19T15:45:55.955Z,202.50
2019-03-19T15:46:55.900Z,180.00
2019-03-19T15:47:55.935Z,174.38
2019-03-19T15:48:55.923Z,174.38
2019-03-19T15:49:55.888Z,174.38
2019-03-19T15:50:55.857Z,168.75
2019-03-19T15:51:55.850Z,168.75
2019-03-19T15:52:55.845Z,174.38
2019-03-19T15:53:55.879Z,174.38
2019-03-19T15:54:55.824Z,180.00
2019-03-19T15:55:55.835Z,185.62
2019-03-19T15:56:55.894Z,185.62
2019-03-19T15:57:56.520Z,185.62
2019-03-19T15:58:55.850Z,180.00
2019-03-19T15:59:55.762Z,185.62
2019-03-19T16:00:55.752Z,191.25
2019-03-19T16:01:55.773Z,185.62
2019-03-19T16:02:55.729Z,180.00
2019-03-19T16:03:55.862Z,174.38
2019-03-19T16:04:55.723Z,163.12
2019-03-19T16:05:55.701Z,157.50
2019-03-19T16:06:55.692Z,157.50
2019-03-19T16:07:55.679Z,157.50
2019-03-19T16:08:55.695Z,157.50
2019-03-19T16:09:55.658Z,157.50
2019-03-19T16:10:55.679Z,151.88
2019-03-19T16:11:55.663Z,151.88
2019-03-19T16:12:55.706Z,151.88
2019-03-19T16:13:56.173Z,146.25
2019-03-19T16:14:55.609Z,146.25
2019-03-19T16:15:55.602Z,151.88
2019-03-19T16:16:55.626Z,146.25
2019-03-19T16:17:55.575Z,146.25
2019-03-19T16:18:55.565Z,146.25
2019-03-19T16:19:55.579Z,146.25
2019-03-19T16:20:55.553Z,101.25
2019-03-19T16:21:55.566Z,140.62
2019-03-19T16:22:55.520Z,140.62
2019-03-19T16:23:55.520Z,140.62
2019-03-19T16:24:55.510Z,140.62
2019-03-19T16:25:55.490Z,140.62
2019-03-19T16:26:56.508Z,140.62
2019-03-19T16:27:55.511Z,140.62
2019-03-19T16:28:55.553Z,140.62
2019-03-19T16:29:55.454Z,140.62
2019-03-19T16:30:55.445Z,140.62
2019-03-19T16:31:55.501Z,135.00
2019-03-19T16:32:55.431Z,135.00
2019-03-19T16:33:55.404Z,135.00
2019-03-19T16:34:55.442Z,129.38
2019-03-19T16:35:55.418Z,101.25
2019-03-19T16:36:55.413Z,84.38
2019-03-19T16:37:55.408Z,78.75
2019-03-19T16:38:55.351Z,90.00
2019-03-19T16:39:55.345Z,84.38
2019-03-19T16:40:55.372Z,73.12
2019-03-19T16:41:55.343Z,67.50
2019-03-19T16:42:55.322Z,61.88
2019-03-19T16:43:55.316Z,61.88
2019-03-19T16:44:55.303Z,56.25
2019-03-19T16:45:55.319Z,56.25
2019-03-19T16:46:55.287Z,50.62
2019-03-19T16:47:55.282Z,50.62
2019-03-19T16:48:55.251Z,50.62
2019-03-19T16:49:55.268Z,45.00
2019-03-19T16:50:56.337Z,45.00
2019-03-19T16:51:55.239Z,45.00
2019-03-19T16:52:55.233Z,45.00
2019-03-19T16:53:55.195Z,45.00
2019-03-19T16:54:55.178Z,45.00
2019-03-19T16:55:55.189Z,45.00
2019-03-19T16:56:55.179Z,45.00
2019-03-19T16:57:55.185Z,45.00
2019-03-19T16:58:55.165Z,45.00
2019-03-19T16:59:55.141Z,45.00
2019-03-19T17:00:55.150Z,45.00
2019-03-19T17:02:01.831Z,45.00
2019-03-19T17:02:56.101Z,39.38
2019-03-19T17:03:55.114Z,39.38
2019-03-19T17:04:55.071Z,39.38
2019-03-19T17:05:55.090Z,33.75
2019-03-19T17:06:55.064Z,33.75
2019-03-19T17:07:55.080Z,33.75
2019-03-19T17:08:55.030Z,33.75
2019-03-19T17:09:55.102Z,28.12
2019-03-19T17:10:55.696Z,28.12
2019-03-19T17:11:55.018Z,28.12
2019-03-19T17:12:55.056Z,28.12
2019-03-19T17:13:54.990Z,22.50
2019-03-19T17:14:55.002Z,22.50
2019-03-19T17:15:54.968Z,22.50
2019-03-19T17:16:55.005Z,22.50
2019-03-19T17:17:54.971Z,22.50
2019-03-19T17:18:54.945Z,16.88
2019-03-19T17:19:54.911Z,16.88
2019-03-19T17:20:54.904Z,16.88
2019-03-19T17:21:54.900Z,16.88
2019-03-19T17:22:55.225Z,16.88
2019-03-19T17:23:54.936Z,16.88
2019-03-19T17:24:54.869Z,16.88
2019-03-19T17:25:54.879Z,11.25
2019-03-19T17:26:54.850Z,11.25
2019-03-19T17:27:54.830Z,11.25
2019-03-19T17:28:54.842Z,11.25
2019-03-19T17:29:54.811Z,11.25
2019-03-19T17:30:54.848Z,5.62
2019-03-19T17:31:54.865Z,5.62
2019-03-19T17:32:54.770Z,5.62
2019-03-19T17:33:54.791Z,5.62
2019-03-19T17:34:54.766Z,5.62
2019-03-19T17:35:54.742Z,5.62
2019-03-19T17:36:54.789Z,5.62
2019-03-19T17:37:54.783Z,5.62
2019-03-19T17:38:54.708Z,5.62
2019-03-19T17:39:54.702Z,0.00
2019-03-19T17:40:54.699Z,0.00
2019-03-19T17:41:54.719Z,0.00
2019-03-19T17:42:54.690Z,0.00
2019-03-19T17:43:54.660Z,0.00
2019-03-19T17:44:54.668Z,0.00
2019-03-19T17:45:54.741Z,0.00
2019-03-19T17:46:54.737Z,0.00
2019-03-19T17:47:54.621Z,0.00
2019-03-19T17:48:54.606Z,0.00
2019-03-19T17:49:54.591Z,0.00
2019-03-19T17:50:54.634Z,0.00
2019-03-19T17:51:54.667Z,0.00
2019-03-19T17:52:54.657Z,0.00
2019-03-19T17:53:54.555Z,0.00
2019-03-19T17:54:54.545Z,0.00
2019-03-19T17:55:54.563Z,0.00
2019-03-19T17:56:54.528Z,0.00
2019-03-19T17:57:54.525Z,0.00
2019-03-19T17:58:54.508Z,0.00
2019-03-19T17:59:55.226Z,0.00
2019-03-19T18:00:54.504Z,0.00
2019-03-19T18:01:54.464Z,0.00
2019-03-19T18:02:54.466Z,0.00
2019-03-19T18:03:54.476Z,0.00
2019-03-19T18:04:54.514Z,0.00
2019-03-19T18:05:54.485Z,0.00
2019-03-19T18:06:54.499Z,0.00
2019-03-19T18:07:54.445Z,0.00
2019-03-19T18:08:54.446Z,0.00
2019-03-19T18:09:54.401Z,0.00
2019-03-19T18:10:54.422Z,0.00
2019-03-19T18:11:54.367Z,0.00
2019-03-19T18:12:54.356Z,0.00
2019-03-19T18:13:54.341Z,0.00
2019-03-19T18:14:54.325Z,0.00
2019-03-19T18:15:54.351Z,0.00
2019-03-19T18:16:54.302Z,0.00
2019-03-19T18:17:54.303Z,0.00
2019-03-19T18:18:54.335Z,0.00
2019-03-19T18:19:54.271Z,0.00
2019-03-19T18:20:54.305Z,0.00
2019-03-19T18:21:54.263Z,0.00
2019-03-19T18:22:54.238Z,0.00
2019-03-19T18:23:54.269Z,0.00
2019-03-19T18:24:54.221Z,0.00
2019-03-19T18:25:54.213Z,0.00
2019-03-19T18:26:54.221Z,0.00
2019-03-19T18:27:54.193Z,0.00
2019-03-19T18:28:54.211Z,0.00
2019-03-19T18:29:55.567Z,0.00
2019-03-19T18:30:54.176Z,0.00
2019-03-19T18:31:54.143Z,0.00
2019-03-19T18:32:54.158Z,0.00
2019-03-19T18:33:54.136Z,0.00
2019-03-19T18:34:54.118Z,0.00
2019-03-19T18:35:56.270Z,0.00
2019-03-19T18:36:54.100Z,0.00
2019-03-19T18:37:54.121Z,0.00
2019-03-19T18:38:54.079Z,0.00
2019-03-19T18:39:54.065Z,0.00
2019-03-19T18:40:54.057Z,0.00
2019-03-19T18:41:54.037Z,0.00
2019-03-19T18:42:54.054Z,0.00
2019-03-19T18:43:54.043Z,0.00
2019-03-19T18:44:54.025Z,0.00
2019-03-19T18:45:54.007Z,0.00
2019-03-19T18:46:54.003Z,0.00
2019-03-19T18:47:54.024Z,0.00
2019-03-19T18:48:53.966Z,0.00
2019-03-19T18:49:53.955Z,0.00
2019-03-19T18:50:53.955Z,0.00
2019-03-19T18:51:53.935Z,0.00
2019-03-19T18:52:53.953Z,0.00
2019-03-19T18:53:53.936Z,0.00
2019-03-19T18:54:53.924Z,0.00
2019-03-19T18:55:53.894Z,0.00
2019-03-19T18:56:53.890Z,0.00
2019-03-19T18:57:53.908Z,0.00
2019-03-19T18:58:53.856Z,0.00
2019-03-19T18:59:53.852Z,0.00
2019-03-19T19:00:53.879Z,0.00
2019-03-19T19:01:53.839Z,0.00
2019-03-19T19:02:53.836Z,0.00
2019-03-19T19:03:53.817Z,0.00
2019-03-19T19:04:53.818Z,0.00
2019-03-19T19:05:53.817Z,0.00
2019-03-19T19:06:53.806Z,0.00
2019-03-19T19:07:53.838Z,0.00
2019-03-19T19:08:53.804Z,0.00
2019-03-19T19:09:53.754Z,0.00
2019-03-19T19:10:53.755Z,0.00
2019-03-19T19:11:53.750Z,0.00
2019-03-19T19:12:53.720Z,0.00
2019-03-19T19:13:53.773Z,0.00
2019-03-19T19:14:53.730Z,0.00
2019-03-19T19:15:53.688Z,0.00
2019-03-19T19:16:53.690Z,0.00
2019-03-19T19:17:53.695Z,0.00
2019-03-19T19:18:53.682Z,0.00
2019-03-19T19:19:53.658Z,0.00
2019-03-19T19:20:53.661Z,0.00
2019-03-19T19:21:53.649Z,0.00
2019-03-19T19:22:53.618Z,0.00
2019-03-19T19:23:53.617Z,0.00
2019-03-19T19:24:53.583Z,0.00
2019-03-19T19:25:53.680Z,0.00
2019-03-19T19:26:53.564Z,0.00
2019-03-19T19:27:53.782Z,0.00
2019-03-19T19:28:53.572Z,0.00
2019-03-19T19:29:53.544Z,0.00
2019-03-19T19:30:53.520Z,0.00
2019-03-19T19:31:53.540Z,0.00
2019-03-19T19:33:01.463Z,0.00
2019-03-19T19:33:54.547Z,0.00
2019-03-19T19:34:53.515Z,0.00
2019-03-19T19:35:53.489Z,0.00
2019-03-19T19:36:53.470Z,0.00
2019-03-19T19:37:53.474Z,0.00
2019-03-19T19:38:53.500Z,0.00
2019-03-19T19:39:53.435Z,0.00
2019-03-19T19:40:53.487Z,0.00
2019-03-19T19:41:53.421Z,0.00
2019-03-19T19:42:53.431Z,0.00
2019-03-19T19:43:53.418Z,0.00
2019-03-19T19:44:53.813Z,0.00
2019-03-19T19:45:53.360Z,0.00
2019-03-19T19:46:53.348Z,0.00
2019-03-19T19:47:53.495Z,0.00
2019-03-19T19:48:53.750Z,0.00
2019-03-19T19:49:53.310Z,0.00
2019-03-19T19:50:53.338Z,0.00
2019-03-19T19:51:53.288Z,0.00
2019-03-19T19:52:53.333Z,0.00
2019-03-19T19:53:53.272Z,0.00
2019-03-19T19:54:53.311Z,0.00
2019-03-19T19:55:53.254Z,0.00
2019-03-19T19:56:53.241Z,0.00
2019-03-19T19:57:53.249Z,0.00
2019-03-19T19:58:53.237Z,0.00
2019-03-19T19:59:53.252Z,0.00
2019-03-19T20:00:53.209Z,0.00
2019-03-19T20:01:53.210Z,0.00
2019-03-19T20:02:54.731Z,0.00
2019-03-19T20:03:53.179Z,0.00
2019-03-19T20:05:02.486Z,0.00
2019-03-19T20:05:54.174Z,0.00
2019-03-19T20:06:53.136Z,0.00
2019-03-19T20:07:53.160Z,0.00
2019-03-19T20:08:53.140Z,0.00
2019-03-19T20:09:53.115Z,0.00
2019-03-19T20:10:53.093Z,0.00
2019-03-19T20:11:53.113Z,0.00
2019-03-19T20:12:53.123Z,0.00
2019-03-19T20:13:53.064Z,0.00
2019-03-19T20:14:53.051Z,0.00
2019-03-19T20:15:53.035Z,0.00
2019-03-19T20:16:53.042Z,0.00
2019-03-19T20:17:53.067Z,0.00
2019-03-19T20:18:53.001Z,0.00
2019-03-19T20:19:52.993Z,0.00
2019-03-19T20:20:52.974Z,0.00
2019-03-19T20:21:53.011Z,0.00
2019-03-19T20:22:52.963Z,0.00
2019-03-19T20:23:52.957Z,0.00
2019-03-19T20:24:52.940Z,0.00
2019-03-19T20:25:52.955Z,0.00
2019-03-19T20:26:52.984Z,0.00
2019-03-19T20:27:52.953Z,0.00
2019-03-19T20:28:52.909Z,0.00
2019-03-19T20:29:52.884Z,0.00
2019-03-19T20:30:52.868Z,0.00
2019-03-19T20:31:52.912Z,0.00
2019-03-19T20:32:52.887Z,0.00
2019-03-19T20:33:52.850Z,0.00
2019-03-19T20:34:52.837Z,0.00
2019-03-19T20:35:52.819Z,0.00
2019-03-19T20:36:52.802Z,0.00
2019-03-19T20:37:52.821Z,0.00
2019-03-19T20:38:52.789Z,0.00
2019-03-19T20:39:52.766Z,0.00
2019-03-19T20:40:52.761Z,0.00
2019-03-19T20:41:52.752Z,0.00
2019-03-19T20:42:52.776Z,0.00
2019-03-19T20:43:52.741Z,0.00
2019-03-19T20:44:52.748Z,0.00
2019-03-19T20:45:52.715Z,0.00
2019-03-19T20:46:52.734Z,0.00
2019-03-19T20:47:52.690Z,0.00
2019-03-19T20:48:52.710Z,0.00
2019-03-19T20:49:52.703Z,0.00
2019-03-19T20:50:52.662Z,0.00
2019-03-19T20:51:52.672Z,0.00
2019-03-19T20:52:52.667Z,0.00
2019-03-19T20:53:52.654Z,0.00
2019-03-19T20:54:52.616Z,0.00
2019-03-19T20:55:52.656Z,0.00
2019-03-19T20:56:52.641Z,0.00
2019-03-19T20:57:52.579Z,0.00
2019-03-19T20:58:52.594Z,0.00
2019-03-19T20:59:52.590Z,0.00
